Time;durP1;ratioP1;P1;durP2;ratioP2;P2;SDS_P1;SDS_P2;PMS_P1;PMS_P2;Temp;Humidity;BMP_temperature;BMP_pressure;BME280_temperature;BME280_humidity;BME280_pressure;Samples;Min_cycle;Max_cycle;Signal;HPM_P1;HPM_P2
2022/05/27 00:01:41;;;;;;;22.17;11.82;;;;;;;21.52;72.69;98923.47;5133637;28;20183;-91
2022/05/27 00:04:07;;;;;;;24.92;11.75;;;;;;;21.38;72.99;98899.19;5132666;27;20393;-92
2022/05/27 00:06:33;;;;;;;23.90;12.30;;;;;;;21.52;73.14;98914.50;5132372;28;20066;-92
2022/05/27 00:08:59;;;;;;;24.25;11.90;;;;;;;21.39;72.95;98890.09;5132248;28;20058;-92
2022/05/27 00:11:25;;;;;;;31.73;12.27;;;;;;;21.46;73.25;98902.25;5133315;27;20069;-92
2022/05/27 00:13:51;;;;;;;24.38;12.73;;;;;;;21.46;73.06;98904.09;5132394;28;20039;-91
2022/05/27 00:16:19;;;;;;;30.15;13.73;;;;;;;21.39;73.68;98894.66;5132182;28;20035;-91
2022/05/27 00:18:45;;;;;;;26.17;13.00;;;;;;;21.43;73.67;98904.34;5132133;28;20088;-91
2022/05/27 00:21:11;;;;;;;27.75;13.48;;;;;;;21.29;74.16;98906.09;5133611;27;20503;-92
2022/05/27 00:23:38;;;;;;;22.70;13.23;;;;;;;21.43;74.14;98928.69;5132465;27;20383;-92
2022/05/27 00:26:05;;;;;;;25.92;13.00;;;;;;;21.32;73.71;98915.88;5131660;27;20053;-92
2022/05/27 00:28:31;;;;;;;29.42;13.35;;;;;;;21.39;73.36;98927.13;5132286;27;20047;-93
2022/05/27 00:30:57;;;;;;;25.75;13.55;;;;;;;21.32;72.77;98907.75;5133154;27;20035;-92
2022/05/27 00:33:24;;;;;;;24.90;12.65;;;;;;;21.37;72.53;98929.06;5132133;28;20376;-92
2022/05/27 00:35:50;;;;;;;27.88;12.82;;;;;;;21.24;73.18;98912.81;5132095;28;20032;-92
2022/05/27 00:38:16;;;;;;;27.77;12.90;;;;;;;21.27;73.42;98913.44;5131360;27;20130;-93
2022/05/27 00:40:44;;;;;;;24.83;13.45;;;;;;;21.18;74.07;98905.97;5131385;28;20042;-91
2022/05/27 00:43:10;;;;;;;24.17;12.70;;;;;;;21.21;74.14;98921.13;5132181;28;20051;-92
2022/05/27 00:45:38;;;;;;;22.65;12.30;;;;;;;21.09;74.38;98893.94;5131269;27;20035;-91
2022/05/27 00:48:07;;;;;;;26.60;12.77;;;;;;;21.13;74.18;98889.19;5130943;27;20032;-91
2022/05/27 00:50:38;;;;;;;26.95;13.48;;;;;;;21.25;74.46;98911.81;5131000;27;20046;-91
2022/05/27 00:53:06;;;;;;;26.98;12.40;;;;;;;20.97;75.02;98884.00;5130566;28;20044;-93
2022/05/27 00:55:36;;;;;;;26.83;13.43;;;;;;;20.82;76.38;98885.88;5133702;28;20076;-92
2022/05/27 00:58:09;;;;;;;23.73;13.10;;;;;;;20.89;77.05;98903.41;5129834;28;20397;-92
2022/05/27 01:00:36;;;;;;;27.50;13.18;;;;;;;20.91;76.56;98887.97;5130380;28;20392;-92
2022/05/27 01:03:03;;;;;;;24.73;13.43;;;;;;;20.92;77.44;98899.63;5130673;27;20043;-91
2022/05/27 01:05:29;;;;;;;24.40;14.48;;;;;;;20.67;77.94;98876.09;5131004;27;20413;-93
2022/05/27 01:08:01;;;;;;;24.58;13.65;;;;;;;20.68;78.43;98885.94;5128426;28;20039;-91
2022/05/27 01:10:39;;;;;;;31.52;14.18;;;;;;;20.66;78.53;98896.84;5112001;28;20115;-92
2022/05/27 01:13:22;;;;;;;25.67;14.23;;;;;;;20.73;78.64;98913.50;5115985;28;20035;-92
2022/05/27 01:15:59;;;;;;;30.77;13.63;;;;;;;20.77;78.03;98908.78;5117429;28;20051;-92
2022/05/27 01:22:16;;;;;;;33.30;13.70;;;;;;;20.84;76.48;98901.97;5131608;27;20925;-92
2022/05/27 01:25:04;;;;;;;24.17;12.67;;;;;;;20.85;76.78;98906.44;5130905;27;20047;-93
2022/05/27 01:27:51;;;;;;;26.83;13.80;;;;;;;20.84;77.09;98908.28;5129226;28;20130;-92
2022/05/27 01:30:24;;;;;;;28.00;13.35;;;;;;;20.72;77.80;98914.50;5131267;28;20267;-92
2022/05/27 01:33:00;;;;;;;28.30;14.07;;;;;;;20.63;78.05;98910.56;5128244;28;20486;-92
2022/05/27 01:35:37;;;;;;;28.35;13.20;;;;;;;20.64;78.68;98906.00;5128716;28;20386;-93
2022/05/27 01:38:10;;;;;;;26.35;13.52;;;;;;;20.62;78.21;98897.16;5133209;28;20039;-92
2022/05/27 01:40:44;;;;;;;25.42;13.20;;;;;;;20.43;79.22;98879.44;5132421;28;20035;-94
2022/05/27 01:43:17;;;;;;;23.83;13.57;;;;;;;20.32;78.96;98860.38;5133640;27;20031;-92
2022/05/27 01:45:51;;;;;;;27.02;13.20;;;;;;;20.36;79.99;98890.72;5132992;27;20496;-93
2022/05/27 01:48:23;;;;;;;29.33;14.90;;;;;;;20.33;79.93;98899.91;5130716;28;20043;-91
2022/05/27 01:50:55;;;;;;;27.17;13.93;;;;;;;20.33;79.84;98896.34;5131313;28;20066;-90
2022/05/27 01:53:28;;;;;;;26.27;13.93;;;;;;;20.44;79.68;98902.75;5130188;28;20122;-93
2022/05/27 01:55:58;;;;;;;25.95;14.63;;;;;;;20.52;79.07;98902.28;5129306;27;20066;-93
2022/05/27 01:58:30;;;;;;;30.05;14.13;;;;;;;20.39;80.13;98880.59;5132106;27;20507;-93
2022/05/27 02:00:58;;;;;;;30.75;14.27;;;;;;;20.16;81.42;98882.09;5129406;28;20092;-90
2022/05/27 02:03:28;;;;;;;29.05;14.00;;;;;;;20.16;82.34;98882.09;5131957;27;20511;-90
2022/05/27 02:06:00;;;;;;;30.80;14.55;;;;;;;20.07;82.81;98861.94;5132197;27;20043;-92
2022/05/27 02:08:32;;;;;;;24.80;14.50;;;;;;;19.98;82.74;98861.69;5131518;28;20043;-90
2022/05/27 02:11:02;;;;;;;27.25;14.90;;;;;;;19.86;83.82;98858.81;5130941;27;20464;-90
2022/05/27 02:13:34;;;;;;;32.08;15.27;;;;;;;19.99;83.78;98864.28;5131960;27;20047;-89
2022/05/27 02:16:02;;;;;;;25.52;14.23;;;;;;;20.21;81.40;98863.78;5130147;28;20035;-93
2022/05/27 02:18:34;;;;;;;25.33;14.52;;;;;;;20.40;79.78;98874.22;5131932;28;20390;-92
2022/05/27 02:21:03;;;;;;;25.55;13.88;;;;;;;20.54;79.29;98900.34;5126985;28;20043;-91
2022/05/27 02:23:39;;;;;;;34.88;14.38;;;;;;;20.60;78.91;98896.38;5131211;27;20050;-93
2022/05/27 02:26:08;;;;;;;26.45;14.35;;;;;;;20.67;78.59;98914.81;5126837;28;20039;-90
2022/05/27 02:28:38;;;;;;;32.38;14.82;;;;;;;20.62;78.18;98898.00;5129946;27;20088;-91
2022/05/27 02:31:09;;;;;;;29.25;15.10;;;;;;;20.63;77.91;98901.59;5128816;27;20096;-91
2022/05/27 02:36:46;;;;;;;31.08;14.38;;;;;;;20.46;79.18;98879.22;5113696;27;20385;-93
2022/05/27 02:39:12;;;;;;;29.45;13.57;;;;;;;20.43;79.47;98878.56;5112159;28;20127;-91
2022/05/27 02:41:43;;;;;;;33.03;13.95;;;;;;;20.39;79.45;98872.50;5113603;28;20112;-90
2022/05/27 02:44:22;;;;;;;24.75;13.18;;;;;;;20.31;79.87;98856.78;5112393;28;20032;-91
2022/05/27 02:46:57;;;;;;;26.02;13.90;;;;;;;20.33;78.79;98859.38;5110186;28;20048;-91
2022/05/27 02:49:28;;;;;;;29.75;13.25;;;;;;;20.48;78.53;98852.13;5109228;28;20043;-92
2022/05/27 02:52:07;;;;;;;28.38;13.10;;;;;;;20.54;78.34;98835.50;5110563;28;20032;-92
2022/05/27 02:54:43;;;;;;;30.10;14.68;;;;;;;20.70;78.34;98820.00;5110467;28;20036;-91
2022/05/27 02:57:13;;;;;;;31.02;15.48;;;;;;;20.11;82.01;98778.94;5111549;28;20043;-90
2022/05/27 02:59:40;;;;;;;29.88;14.27;;;;;;;20.23;81.93;98788.03;5110939;28;20047;-91
2022/05/27 03:02:09;;;;;;;26.45;14.50;;;;;;;20.25;82.86;98791.50;5111526;28;20122;-92
2022/05/27 03:04:36;;;;;;;30.40;15.32;;;;;;;20.22;84.04;98805.22;5111209;28;20028;-91
2022/05/27 03:07:21;;;;;;;28.65;15.18;;;;;;;20.07;84.92;98802.56;5112655;28;20039;-92
2022/05/27 03:09:52;;;;;;;35.80;14.80;;;;;;;20.07;84.22;98815.19;5110632;28;20507;-92
2022/05/27 03:12:33;;;;;;;30.08;14.90;;;;;;;20.18;83.17;98828.84;5113010;28;20047;-91
2022/05/27 03:15:22;;;;;;;28.98;16.33;;;;;;;19.87;84.54;98817.34;5111333;28;20028;-92
2022/05/27 03:18:05;;;;;;;29.13;16.30;;;;;;;19.85;85.47;98838.19;5111647;28;20146;-92
2022/05/27 03:20:46;;;;;;;32.20;15.35;;;;;;;19.72;85.00;98818.34;5110877;28;20043;-93
2022/05/27 03:23:31;;;;;;;32.55;15.18;;;;;;;19.90;84.35;98841.44;5111270;28;20062;-92
2022/05/27 03:26:03;;;;;;;32.50;16.23;;;;;;;19.98;84.15;98840.09;5110627;28;20047;-92
2022/05/27 03:28:35;;;;;;;35.28;17.27;;;;;;;20.06;83.31;98846.72;5111583;28;20504;-93
2022/05/27 03:31:05;;;;;;;30.83;15.70;;;;;;;20.09;83.02;98842.97;5112121;28;20036;-92
2022/05/27 03:33:35;;;;;;;29.85;16.55;;;;;;;20.14;82.13;98830.00;5111114;28;20036;-94
2022/05/27 03:36:10;;;;;;;31.20;14.68;;;;;;;20.21;82.17;98834.06;5111421;28;20505;-93
2022/05/27 03:38:42;;;;;;;31.35;15.02;;;;;;;20.21;82.35;98825.97;5112175;28;20151;-92
2022/05/27 03:41:15;;;;;;;27.90;15.05;;;;;;;20.12;82.37;98815.75;5111673;28;20044;-92
2022/05/27 03:43:44;;;;;;;29.75;16.52;;;;;;;20.19;82.08;98825.19;5112289;28;20144;-93
2022/05/27 03:46:09;;;;;;;29.38;15.27;;;;;;;20.21;81.76;98825.97;5107610;28;20058;-93
2022/05/27 03:48:37;;;;;;;35.10;15.48;;;;;;;20.15;81.57;98810.16;5098323;28;20054;-92
2022/05/27 03:51:09;;;;;;;32.25;15.10;;;;;;;20.18;81.44;98812.66;5090450;28;20043;-92
2022/05/27 03:56:39;;;;;;;27.48;15.32;;;;;;;20.24;81.77;98812.25;5154904;27;20374;-93
2022/05/27 03:59:07;;;;;;;26.13;15.60;;;;;;;20.09;82.45;98810.56;5153868;27;20117;-92
2022/05/27 04:01:35;;;;;;;32.90;16.55;;;;;;;20.07;82.48;98793.59;5155654;27;20103;-96
2022/05/27 04:04:04;;;;;;;29.02;14.75;;;;;;;20.11;82.15;98785.19;5154727;27;20088;-94
2022/05/27 04:06:30;;;;;;;30.77;16.77;;;;;;;20.36;79.94;98802.47;5155446;27;20134;-93
2022/05/27 04:08:57;;;;;;;26.00;13.95;;;;;;;20.41;78.90;98797.63;5155783;27;20035;-92
2022/05/27 04:11:23;;;;;;;26.17;14.20;;;;;;;20.48;78.37;98808.88;5155799;27;20047;-94
2022/05/27 04:13:50;;;;;;;23.35;14.35;;;;;;;20.51;77.50;98806.88;5157211;27;20038;-95
2022/05/27 04:16:16;;;;;;;23.13;12.45;;;;;;;20.69;74.46;98810.19;5154955;27;20041;-91
2022/05/27 04:18:42;;;;;;;29.80;12.65;;;;;;;20.88;71.41;98777.34;5155415;27;20035;-91
2022/05/27 04:21:09;;;;;;;25.08;12.13;;;;;;;21.23;68.86;98792.94;5154872;27;20064;-92
2022/05/27 04:23:35;;;;;;;24.65;10.60;;;;;;;21.40;66.74;98799.84;5159046;27;20499;-93
2022/05/27 04:26:01;;;;;;;23.95;10.77;;;;;;;21.53;67.76;98813.41;5156860;27;20046;-95
2022/05/27 04:28:27;;;;;;;21.85;10.27;;;;;;;21.45;66.68;98791.47;5154642;27;20507;-93
2022/05/27 04:30:54;;;;;;;23.65;11.30;;;;;;;21.61;67.44;98812.88;5153704;27;20070;-93
2022/05/27 04:33:21;;;;;;;27.40;13.02;;;;;;;21.48;72.26;98818.28;5153111;27;20043;-93
2022/05/27 04:35:47;;;;;;;26.10;14.55;;;;;;;21.50;73.11;98833.44;5152896;27;20117;-94
2022/05/27 04:38:13;;;;;;;23.52;13.00;;;;;;;21.41;73.92;98827.78;5152392;27;20043;-90
2022/05/27 04:40:39;;;;;;;30.80;13.85;;;;;;;21.26;74.78;98808.94;5152708;27;20042;-93
2022/05/27 04:43:06;;;;;;;25.17;14.60;;;;;;;21.20;75.20;98805.81;5152691;27;20035;-91
2022/05/27 04:45:33;;;;;;;27.73;14.35;;;;;;;21.04;76.28;98801.47;5152554;27;20077;-94
2022/05/27 04:48:00;;;;;;;24.55;14.07;;;;;;;21.18;76.52;98832.94;5152616;27;20042;-92
2022/05/27 04:50:27;;;;;;;30.48;13.85;;;;;;;21.16;76.72;98831.34;5152974;27;20503;-94
2022/05/27 04:52:53;;;;;;;26.05;13.85;;;;;;;21.02;76.53;98819.66;5152726;27;20039;-93
2022/05/27 04:55:19;;;;;;;26.25;14.35;;;;;;;21.10;76.42;98822.69;5153131;27;20043;-95
2022/05/27 04:57:49;;;;;;;26.50;14.40;;;;;;;21.21;76.94;98848.09;5149915;27;20047;-95
2022/05/27 05:00:17;;;;;;;30.42;14.80;;;;;;;21.08;76.81;98816.53;5152734;27;20527;-94
2022/05/27 05:02:44;;;;;;;29.15;15.32;;;;;;;21.17;76.77;98842.06;5155755;27;20108;-95
2022/05/27 05:05:14;;;;;;;29.13;14.23;;;;;;;21.25;76.23;98834.28;5152045;27;20479;-94
2022/05/27 05:07:41;;;;;;;25.15;13.98;;;;;;;21.43;75.48;98851.09;5139204;27;20043;-94
2022/05/27 05:10:08;;;;;;;26.65;13.55;;;;;;;21.62;74.51;98847.06;5137927;27;20434;-93
2022/05/27 05:12:34;;;;;;;26.45;13.50;;;;;;;21.89;73.87;98872.16;5137233;27;20416;-93
2022/05/27 05:15:00;;;;;;;27.23;14.48;;;;;;;22.05;73.23;98876.47;5137681;27;20039;-92
2022/05/27 05:17:25;;;;;;;27.70;14.27;;;;;;;22.01;72.91;98870.41;5137207;27;20051;-94
2022/05/27 05:19:55;;;;;;;24.88;12.98;;;;;;;22.21;72.17;98870.81;5137626;27;20059;-93
2022/05/27 05:22:23;;;;;;;25.13;13.85;;;;;;;22.17;72.04;98864.75;5137712;27;20074;-93
2022/05/27 05:24:49;;;;;;;29.70;12.63;;;;;;;22.24;72.11;98876.03;5138982;27;20055;-93
2022/05/27 05:27:15;;;;;;;25.38;15.60;;;;;;;22.34;71.17;98886.06;5137930;27;20042;-93
2022/05/27 05:29:41;;;;;;;26.60;13.27;;;;;;;22.22;71.15;98872.53;5137656;27;20031;-94
2022/05/27 05:32:07;;;;;;;23.00;13.35;;;;;;;22.43;70.93;98870.13;5137901;27;20556;-94
2022/05/27 05:34:33;;;;;;;26.42;13.13;;;;;;;22.72;69.65;98887.75;5137229;27;20043;-93
2022/05/27 05:36:59;;;;;;;25.60;13.23;;;;;;;22.84;68.73;98885.97;5136889;27;20042;-94
2022/05/27 05:39:26;;;;;;;27.33;13.05;;;;;;;23.10;67.78;98881.31;5137280;27;20583;-94
2022/05/27 05:41:56;;;;;;;26.88;13.52;;;;;;;23.31;66.75;98899.59;5137460;27;20055;-94
2022/05/27 05:44:22;;;;;;;32.72;14.00;;;;;;;23.56;65.93;98895.84;5136745;27;20047;-92
2022/05/27 05:46:49;;;;;;;27.80;13.30;;;;;;;23.75;64.95;98871.72;5137523;27;20384;-92
2022/05/27 05:49:14;;;;;;;25.33;13.02;;;;;;;24.03;63.53;98869.50;5137193;27;20035;-93
2022/05/27 05:51:40;;;;;;;24.55;13.80;;;;;;;24.09;62.47;98870.84;5137111;27;20092;-92
2022/05/27 05:54:06;;;;;;;24.85;14.38;;;;;;;24.26;62.00;98881.22;5137339;27;20039;-92
2022/05/27 05:56:33;;;;;;;23.60;13.23;;;;;;;24.32;62.25;98879.84;5142646;27;20103;-92
2022/05/27 05:59:00;;;;;;;27.60;12.95;;;;;;;24.32;59.55;98864.41;5136838;27;20067;-93
2022/05/27 06:01:26;;;;;;;26.17;12.57;;;;;;;24.50;60.17;98861.19;5136982;27;20043;-93
2022/05/27 06:03:52;;;;;;;24.48;12.45;;;;;;;24.64;59.48;98860.91;5136676;27;20045;-92
2022/05/27 06:06:17;;;;;;;23.33;13.45;;;;;;;24.82;59.25;98857.63;5137698;27;20433;-93
2022/05/27 06:08:43;;;;;;;23.85;12.13;;;;;;;24.98;58.65;98852.59;5136741;27;20035;-92
2022/05/27 06:11:09;;;;;;;25.30;13.02;;;;;;;25.08;57.71;98844.53;5136563;27;20052;-93
2022/05/27 06:13:37;;;;;;;22.55;12.25;;;;;;;25.37;56.92;98861.06;5136796;27;20099;-93
2022/05/27 06:16:04;;;;;;;26.45;12.48;;;;;;;25.56;56.88;98847.59;5136665;27;20052;-91
2022/05/27 06:18:29;;;;;;;22.30;12.40;;;;;;;25.84;55.82;98866.94;5135739;27;20050;-93
2022/05/27 06:20:55;;;;;;;30.10;11.98;;;;;;;25.88;56.89;98854.81;5136983;27;20035;-93
2022/05/27 06:23:22;;;;;;;22.40;11.63;;;;;;;25.96;56.92;98851.41;5136776;27;20465;-93
2022/05/27 06:25:53;;;;;;;24.73;12.13;;;;;;;25.79;57.81;98833.81;5137707;27;20031;-93
2022/05/27 06:34:23;;;;;;;25.17;12.90;;;;;;;25.53;58.47;98856.03;5107231;27;20350;-92
2022/05/27 06:36:50;;;;;;;19.42;11.55;;;;;;;25.04;58.94;98867.53;5111684;28;20044;-94
2022/05/27 06:39:16;;;;;;;28.65;13.10;;;;;;;24.42;59.89;98877.22;5110569;28;20101;-94
2022/05/27 06:41:43;;;;;;;22.30;11.90;;;;;;;24.54;59.58;98868.94;5111597;28;20101;-93
2022/05/27 06:44:09;;;;;;;26.75;11.52;;;;;;;24.59;59.00;98871.28;5113509;28;20054;-93
2022/05/27 06:46:36;;;;;;;21.38;11.40;;;;;;;24.72;58.44;98861.13;5112772;28;20439;-92
2022/05/27 06:49:02;;;;;;;23.65;11.95;;;;;;;24.35;60.11;98869.59;5112303;28;20048;-92
2022/05/27 06:51:29;;;;;;;21.88;11.68;;;;;;;24.31;61.29;98851.81;5112417;28;20062;-94
2022/05/27 06:53:55;;;;;;;18.98;11.70;;;;;;;24.30;61.79;98855.50;5111590;28;20044;-95
2022/05/27 06:56:22;;;;;;;25.58;11.88;;;;;;;24.53;61.37;98864.53;5110635;28;20044;-93
2022/05/27 06:58:47;;;;;;;27.05;13.00;;;;;;;24.56;60.18;98841.66;5112966;28;20058;-93
2022/05/27 07:01:13;;;;;;;21.60;12.60;;;;;;;24.48;61.64;98845.00;5113184;28;20568;-93
2022/05/27 07:03:40;;;;;;;22.95;12.45;;;;;;;24.44;61.99;98856.22;5112332;28;20043;-93
2022/05/27 07:06:07;;;;;;;21.45;11.82;;;;;;;24.01;62.90;98838.00;5111238;28;20064;-92
2022/05/27 07:08:34;;;;;;;25.85;12.27;;;;;;;23.47;64.15;98823.31;5113080;28;20089;-92
2022/05/27 07:11:01;;;;;;;21.57;11.80;;;;;;;23.63;63.59;98828.38;5111775;28;20050;-94
2022/05/27 07:13:27;;;;;;;20.88;12.63;;;;;;;23.42;64.55;98820.06;5113531;28;20040;-94
2022/05/27 07:15:53;;;;;;;22.85;13.57;;;;;;;23.59;64.39;98816.88;5113304;28;20097;-94
2022/05/27 07:18:19;;;;;;;25.13;13.07;;;;;;;23.85;62.96;98811.25;5115268;28;20075;-94
2022/05/27 07:20:45;;;;;;;26.67;12.23;;;;;;;24.30;60.14;98806.59;5113360;28;20126;-93
2022/05/27 07:23:11;;;;;;;28.92;11.98;;;;;;;24.56;59.65;98812.59;5112842;28;20134;-94
2022/05/27 07:25:40;;;;;;;26.70;11.65;;;;;;;24.59;59.43;98784.28;5113129;28;20040;-94
2022/05/27 07:28:07;;;;;;;25.13;12.85;;;;;;;24.74;61.17;98790.28;5116420;28;20094;-94
2022/05/27 07:30:34;;;;;;;22.92;11.70;;;;;;;25.12;60.61;98791.56;5113061;28;20067;-94
2022/05/27 07:32:59;;;;;;;27.80;12.35;;;;;;;25.08;61.04;98781.94;5109978;28;20070;-94
2022/05/27 07:35:26;;;;;;;25.00;12.48;;;;;;;25.50;58.53;98810.00;5112843;28;20043;-94
2022/05/27 07:37:51;;;;;;;22.95;11.90;;;;;;;25.67;58.21;98792.16;5113463;28;20435;-93
2022/05/27 07:40:18;;;;;;;22.75;11.27;;;;;;;26.09;57.02;98816.59;5113679;28;20476;-93
2022/05/27 07:42:45;;;;;;;25.08;11.13;;;;;;;26.54;55.20;98801.59;5113307;28;20111;-96
2022/05/27 07:45:13;;;;;;;19.85;11.10;;;;;;;26.57;53.52;98764.03;5100965;28;20078;-92
2022/05/27 07:47:39;;;;;;;26.40;11.30;;;;;;;26.27;54.67;98781.34;5093824;28;20062;-93
2022/05/27 07:50:07;;;;;;;20.25;10.68;;;;;;;26.15;55.57;98763.38;5097742;28;20504;-92
2022/05/27 07:52:34;;;;;;;21.95;10.77;;;;;;;25.72;56.37;98740.00;5099411;28;20036;-95
2022/05/27 07:55:00;;;;;;;19.85;11.50;;;;;;;25.67;57.08;98731.41;5094326;28;20040;-93
2022/05/27 07:57:29;;;;;;;22.70;10.73;;;;;;;25.88;55.37;98734.94;5098793;28;20048;-94
2022/05/27 08:00:04;;;;;;;18.30;10.52;;;;;;;26.16;55.83;98751.50;5098664;28;20488;-93
2022/05/27 08:02:31;;;;;;;21.33;9.90;;;;;;;26.33;54.96;98742.63;5097363;28;20032;-94
2022/05/27 08:04:57;;;;;;;20.67;10.70;;;;;;;26.52;56.42;98744.47;5100119;28;20036;-94
2022/05/27 08:07:23;;;;;;;21.38;11.20;;;;;;;26.72;55.42;98750.84;5099011;28;20079;-91
2022/05/27 08:09:49;;;;;;;18.95;10.50;;;;;;;27.01;52.96;98745.31;5099915;28;20048;-95
2022/05/27 08:12:15;;;;;;;20.17;9.73;;;;;;;27.03;52.98;98734.28;5100572;28;20103;-94
2022/05/27 08:14:41;;;;;;;20.48;9.73;;;;;;;27.19;52.57;98736.38;5100914;28;20032;-92
2022/05/27 08:17:08;;;;;;;17.95;9.32;;;;;;;27.49;53.06;98729.84;5099338;28;20036;-92
2022/05/27 08:19:34;;;;;;;23.38;10.45;;;;;;;27.13;52.22;98717.84;5100202;28;20048;-94
2022/05/27 08:22:00;;;;;;;21.75;10.40;;;;;;;27.32;52.17;98711.50;5100440;28;20048;-93
2022/05/27 08:24:26;;;;;;;19.67;9.15;;;;;;;27.45;51.27;98732.03;5098998;28;20051;-92
2022/05/27 08:26:52;;;;;;;17.35;9.48;;;;;;;27.59;51.25;98719.75;5097917;28;20048;-92
2022/05/27 08:29:18;;;;;;;18.02;9.45;;;;;;;27.77;51.74;98741.66;5098487;28;20063;-92
2022/05/27 08:31:43;;;;;;;19.85;10.18;;;;;;;27.94;51.18;98720.88;5097936;28;20036;-92
2022/05/27 08:40:14;;;;;;;19.25;9.27;;;;;;;27.91;50.20;98723.03;5155878;27;20635;-91
2022/05/27 08:42:51;;;;;;;16.30;9.15;;;;;;;28.26;50.88;98722.25;5155060;27;20051;-91
2022/05/27 08:45:21;;;;;;;13.57;8.48;;;;;;;28.67;48.93;98706.25;5155828;27;20039;-91
2022/05/27 08:47:52;;;;;;;20.77;8.68;;;;;;;28.63;48.50;98702.09;5154313;27;20042;-90
2022/05/27 08:50:24;;;;;;;16.73;9.35;;;;;;;28.80;47.55;98683.91;5156095;27;20047;-93
2022/05/27 08:52:55;;;;;;;14.95;9.00;;;;;;;27.97;48.42;98690.50;5156117;27;20556;-92
2022/05/27 09:01:40;;;;;;;17.58;8.30;;;;;;;28.87;46.84;98695.97;5129481;27;20361;-92
2022/05/27 09:04:11;;;;;;;17.08;8.25;;;;;;;28.76;46.71;98686.13;5096535;28;20048;-93
2022/05/27 09:06:42;;;;;;;16.95;7.95;;;;;;;28.86;45.39;98689.63;5095151;28;20042;-93
2022/05/27 09:09:17;;;;;;;17.25;7.85;;;;;;;28.84;45.20;98679.84;5094535;28;20547;-93
2022/05/27 09:12:06;;;;;;;23.05;8.07;;;;;;;29.01;45.36;98672.59;5094902;28;20048;-96
2022/05/27 09:14:35;;;;;;;15.77;7.78;;;;;;;29.43;42.92;98680.03;5092737;28;20477;-93
2022/05/27 09:17:05;;;;;;;23.48;8.48;;;;;;;29.11;44.46;98675.28;5094630;28;20039;-92
2022/05/27 09:19:41;;;;;;;20.08;8.32;;;;;;;29.39;43.58;98663.09;5092969;28;20047;-92
2022/05/27 09:22:15;;;;;;;19.35;8.32;;;;;;;29.12;44.38;98694.25;5094708;28;20071;-92
2022/05/27 09:24:50;;;;;;;18.20;7.97;;;;;;;29.23;43.55;98704.97;5077161;28;20060;-93
2022/05/27 09:27:21;;;;;;;16.02;7.53;;;;;;;29.57;43.83;98689.53;5093273;28;20052;-91
2022/05/27 09:29:59;;;;;;;19.70;7.93;;;;;;;29.81;43.85;98688.81;5088958;28;20036;-92
2022/05/27 09:32:36;;;;;;;15.75;7.75;;;;;;;29.80;43.50;98690.69;5094615;28;20449;-91
2022/05/27 09:35:05;;;;;;;15.55;7.75;;;;;;;29.85;43.69;98690.19;5090086;28;20044;-92
2022/05/27 09:37:35;;;;;;;15.68;8.20;;;;;;;30.38;43.43;98693.59;5091004;28;20040;-93
2022/05/27 09:40:10;;;;;;;16.20;7.57;;;;;;;30.52;40.87;98695.66;5093425;28;20108;-92
2022/05/27 09:42:42;;;;;;;19.45;7.85;;;;;;;30.84;40.40;98696.66;5092859;28;20050;-91
2022/05/27 09:45:09;;;;;;;22.38;7.93;;;;;;;31.06;39.59;98670.44;5091776;28;20037;-91
2022/05/27 09:47:36;;;;;;;18.40;8.50;;;;;;;30.70;40.19;98673.53;5092015;28;20040;-91
2022/05/27 09:50:09;;;;;;;13.85;8.00;;;;;;;31.36;39.19;98666.06;5092382;28;20045;-91
2022/05/27 09:52:40;;;;;;;18.45;7.65;;;;;;;31.70;37.78;98682.25;5091569;28;20075;-91
2022/05/27 09:55:15;;;;;;;14.93;7.82;;;;;;;31.37;38.78;98681.50;5092561;28;20036;-91
2022/05/27 09:57:55;;;;;;;13.95;6.55;;;;;;;31.65;37.12;98683.84;5092168;28;20044;-93
2022/05/27 10:00:34;;;;;;;14.88;6.93;;;;;;;32.40;36.46;98680.50;5090072;28;20058;-91
2022/05/27 10:03:24;;;;;;;13.32;6.60;;;;;;;32.51;36.28;98662.69;5090492;28;20479;-92
2022/05/27 10:05:51;;;;;;;17.70;7.15;;;;;;;31.74;38.00;98677.25;5091488;28;20049;-92
2022/05/27 10:08:30;;;;;;;16.33;7.32;;;;;;;32.17;35.87;98683.22;5090631;28;20066;-92
2022/05/27 10:11:12;;;;;;;16.05;7.32;;;;;;;32.47;35.30;98680.63;5088766;28;20036;-92
2022/05/27 10:13:41;;;;;;;18.75;7.97;;;;;;;31.50;36.82;98676.31;5076140;28;20055;-92
2022/05/27 10:16:11;;;;;;;19.58;8.05;;;;;;;30.96;38.47;98669.75;5078988;28;20496;-93
2022/05/27 10:18:39;;;;;;;16.70;8.13;;;;;;;30.88;39.04;98676.97;5078178;28;20409;-92
2022/05/27 10:21:11;;;;;;;21.52;7.72;;;;;;;30.76;36.40;98674.72;5078614;28;20041;-94
2022/05/27 10:23:40;;;;;;;18.58;7.20;;;;;;;30.60;37.05;98653.63;5071517;28;20056;-93
2022/05/27 10:26:20;;;;;;;17.45;6.72;;;;;;;30.81;35.93;98659.44;5079628;28;20504;-93
2022/05/27 10:28:56;;;;;;;15.82;6.75;;;;;;;30.71;37.98;98669.75;5077163;28;20070;-92
2022/05/27 10:31:23;;;;;;;14.50;6.45;;;;;;;31.05;37.95;98657.72;5077722;28;20044;-92
2022/05/27 10:33:50;;;;;;;14.48;6.47;;;;;;;31.00;37.75;98657.41;5077999;28;20477;-92
2022/05/27 10:36:54;;;;;;;13.60;6.97;;;;;;;31.07;38.56;98672.13;5077865;28;20067;-90
2022/05/27 10:39:27;;;;;;;19.55;6.60;;;;;;;31.30;35.86;98651.13;5072140;28;20052;-92
2022/05/27 10:42:27;;;;;;;14.98;6.75;;;;;;;31.52;35.14;98666.00;5077824;28;20153;-91
2022/05/27 10:45:09;;;;;;;15.68;6.75;;;;;;;31.55;37.05;98674.94;5067550;28;20068;-92
2022/05/27 10:47:57;;;;;;;14.23;7.50;;;;;;;31.62;38.22;98645.69;5075856;28;20064;-92
2022/05/27 10:50:30;;;;;;;16.83;6.55;;;;;;;31.47;35.12;98648.34;5077370;28;20428;-92
2022/05/27 10:53:33;;;;;;;20.30;6.70;;;;;;;31.62;35.02;98649.31;5077554;28;20044;-91
2022/05/27 10:56:10;;;;;;;13.60;6.32;;;;;;;31.11;36.22;98627.66;5059508;28;20049;-93
2022/05/27 11:02:07;;;;;;;14.88;6.70;;;;;;;31.86;34.04;98645.56;5085380;27;20376;-93
2022/05/27 11:04:59;;;;;;;15.48;6.38;;;;;;;31.83;34.37;98643.16;5054200;28;20057;-93
2022/05/27 11:07:36;;;;;;;16.83;5.72;;;;;;;32.16;32.29;98636.63;5049450;28;20044;-93
2022/05/27 11:10:19;;;;;;;13.40;5.68;;;;;;;32.35;32.72;98622.38;5055961;28;20066;-91
2022/05/27 11:16:15;;;;;;;12.15;5.22;;;;;;;32.69;30.84;98626.59;5107693;27;20368;-94
2022/05/27 11:18:58;;;;;;;13.82;4.90;;;;;;;32.67;28.63;98610.25;5074293;28;20041;-94
2022/05/27 11:21:49;;;;;;;16.67;5.25;;;;;;;32.89;29.16;98613.97;5069262;28;20043;-93
2022/05/27 11:25:03;;;;;;;12.52;5.35;;;;;;;32.89;29.63;98602.97;5054279;28;20417;-93
2022/05/27 11:27:44;;;;;;;13.88;5.13;;;;;;;32.93;27.78;98590.53;4955803;28;20042;-92
2022/05/27 11:30:23;;;;;;;17.50;5.95;;;;;;;32.97;28.42;98598.44;4993197;28;20050;-94
2022/05/27 11:33:04;;;;;;;13.48;5.72;;;;;;;32.59;29.15;98584.69;4989850;28;20047;-93
2022/05/27 11:35:45;;;;;;;12.82;5.47;;;;;;;32.66;29.44;98592.03;4986414;28;20427;-95
2022/05/27 11:38:34;;;;;;;15.90;5.82;;;;;;;32.30;30.23;98575.31;4984984;28;20070;-92
2022/05/27 11:41:09;;;;;;;12.00;4.78;;;;;;;32.56;29.04;98579.59;4990545;28;20038;-95
2022/05/27 11:43:47;;;;;;;17.38;6.00;;;;;;;32.46;30.13;98580.66;4990864;28;20066;-93
2022/05/27 11:46:33;;;;;;;15.50;5.38;;;;;;;32.63;30.59;98580.53;4990879;28;20060;-94
2022/05/27 11:49:26;;;;;;;18.13;5.93;;;;;;;32.88;29.76;98564.63;4989991;28;20042;-92
2022/05/27 11:52:08;;;;;;;15.07;5.40;;;;;;;32.78;30.09;98559.38;4932266;29;20541;-94
2022/05/27 11:55:09;;;;;;;11.50;5.18;;;;;;;33.14;29.01;98551.25;4933961;29;20051;-93
2022/05/27 11:57:50;;;;;;;14.70;5.38;;;;;;;32.93;29.47;98551.97;4933594;29;20413;-93
2022/05/27 12:00:18;;;;;;;16.13;5.95;;;;;;;32.52;30.30;98526.75;4935694;29;20059;-94
2022/05/27 12:02:54;;;;;;;18.83;5.72;;;;;;;32.82;29.17;98540.59;4934737;29;20047;-94
2022/05/27 12:05:26;;;;;;;20.80;5.70;;;;;;;32.97;29.16;98532.31;5008342;28;20037;-94
2022/05/27 12:07:57;;;;;;;13.52;5.60;;;;;;;33.16;28.11;98523.50;5029797;28;20048;-92
2022/05/27 12:10:25;;;;;;;21.20;5.68;;;;;;;33.10;27.98;98538.03;5027192;28;20506;-91
2022/05/27 12:12:57;;;;;;;12.23;4.50;;;;;;;33.26;27.41;98504.75;5027947;28;20581;-93